createdAt,value
2019-05-13T00:01:00.109Z,16.05
2019-05-13T00:03:33.364Z,15.93
2019-05-13T00:06:08.547Z,15.93
2019-05-13T00:08:44.004Z,15.87
2019-05-13T00:11:17.600Z,15.94
2019-05-13T00:13:50.069Z,15.89
2019-05-13T00:16:23.466Z,15.90
2019-05-13T00:18:54.899Z,15.97
2019-05-13T00:21:33.699Z,15.88
2019-05-13T00:24:05.789Z,15.84
2019-05-13T00:26:44.451Z,15.82
2019-05-13T00:29:18.748Z,15.75
2019-05-13T00:32:10.619Z,15.60
2019-05-13T00:34:46.526Z,15.67
2019-05-13T00:37:24.449Z,15.54
2019-05-13T00:40:03.998Z,15.37
2019-05-13T00:42:43.827Z,15.43
2019-05-13T00:45:14.667Z,15.41
2019-05-13T00:47:53.730Z,15.22
2019-05-13T00:50:25.914Z,15.32
2019-05-13T00:52:58.754Z,15.25
2019-05-13T00:55:37.582Z,15.33
2019-05-13T00:58:14.026Z,15.23
2019-05-13T01:00:46.552Z,15.31
2019-05-13T01:03:20.895Z,15.30
2019-05-13T01:05:53.510Z,15.24
2019-05-13T01:08:36.669Z,15.30
2019-05-13T01:11:13.946Z,15.25
2019-05-13T01:13:46.529Z,15.17
2019-05-13T01:16:19.104Z,15.16
2019-05-13T01:18:53.680Z,15.12
2019-05-13T01:21:25.256Z,15.10
2019-05-13T01:24:05.377Z,15.13
2019-05-13T01:26:40.180Z,15.11
2019-05-13T01:29:14.144Z,15.07
2019-05-13T01:31:46.995Z,15.09
2019-05-13T01:34:23.545Z,14.92
2019-05-13T01:36:59.003Z,15.02
2019-05-13T01:39:37.305Z,14.91
2019-05-13T01:42:11.062Z,15.01
2019-05-13T01:44:45.289Z,14.85
2019-05-13T01:47:18.489Z,14.97
2019-05-13T01:49:50.260Z,14.94
2019-05-13T01:52:21.070Z,14.85
2019-05-13T01:54:54.420Z,14.85
2019-05-13T01:57:27.605Z,14.85
2019-05-13T02:00:04.674Z,14.91
2019-05-13T02:02:39.044Z,14.72
2019-05-13T02:05:10.007Z,14.77
2019-05-13T02:07:54.543Z,14.75
2019-05-13T02:10:24.507Z,14.77
2019-05-13T02:13:00.551Z,14.69
2019-05-13T02:15:36.220Z,14.64
2019-05-13T02:18:09.643Z,14.64
2019-05-13T02:20:44.986Z,14.55
2019-05-13T02:23:15.662Z,14.47
2019-05-13T02:25:46.128Z,14.49
2019-05-13T02:28:17.938Z,14.57
2019-05-13T02:30:50.749Z,14.52
2019-05-13T02:33:26.555Z,14.33
2019-05-13T02:35:58.195Z,14.38
2019-05-13T02:38:31.830Z,14.41
2019-05-13T02:41:02.880Z,14.35
2019-05-13T02:43:41.391Z,14.30
2019-05-13T02:46:12.942Z,14.16
2019-05-13T02:48:47.981Z,14.10
2019-05-13T02:51:32.851Z,14.25
2019-05-13T02:54:12.826Z,14.19
2019-05-13T02:56:45.638Z,14.07
2019-05-13T02:59:16.607Z,14.06
2019-05-13T03:01:53.290Z,14.11
2019-05-13T03:04:32.882Z,14.13
2019-05-13T03:07:07.605Z,14.11
2019-05-13T03:09:42.074Z,14.11
2019-05-13T03:12:15.659Z,14.06
2019-05-13T03:14:48.605Z,13.99
2019-05-13T03:17:32.426Z,14.05
2019-05-13T03:20:04.187Z,13.92
2019-05-13T03:22:36.491Z,13.90
2019-05-13T03:25:06.778Z,13.82
2019-05-13T03:27:37.041Z,13.96
2019-05-13T03:30:16.725Z,13.88
2019-05-13T03:32:55.256Z,13.70
2019-05-13T03:35:26.810Z,13.55
2019-05-13T03:37:57.254Z,13.79
2019-05-13T03:40:33.077Z,13.74
2019-05-13T03:43:12.838Z,13.73
2019-05-13T03:45:46.012Z,13.73
2019-05-13T03:48:24.004Z,13.79
2019-05-13T03:50:56.204Z,13.74
2019-05-13T03:53:42.941Z,13.71
2019-05-13T03:56:13.112Z,13.74
2019-05-13T03:58:56.054Z,13.72
2019-05-13T04:01:32.574Z,13.72
2019-05-13T04:04:04.240Z,13.66
2019-05-13T04:06:37.538Z,13.67
2019-05-13T04:09:22.285Z,13.63
2019-05-13T04:11:52.631Z,13.71
2019-05-13T04:14:23.345Z,13.67
2019-05-13T04:16:58.065Z,13.77
2019-05-13T04:19:28.933Z,13.67
2019-05-13T04:22:02.416Z,13.70
2019-05-13T04:24:34.058Z,13.74
2019-05-13T04:27:14.703Z,13.75
2019-05-13T04:29:53.729Z,13.73
2019-05-13T04:32:33.176Z,13.76
2019-05-13T04:35:05.770Z,13.79
2019-05-13T04:37:43.007Z,13.72
2019-05-13T04:40:15.391Z,13.72
2019-05-13T04:42:47.557Z,13.67
2019-05-13T04:45:18.758Z,13.94
2019-05-13T04:47:52.915Z,13.86
2019-05-13T04:50:26.833Z,13.99
2019-05-13T04:52:58.284Z,14.02
2019-05-13T04:55:42.738Z,13.95
2019-05-13T04:58:16.811Z,14.03
2019-05-13T05:01:23.660Z,14.18
2019-05-13T05:04:27.427Z,14.13
2019-05-13T05:07:22.187Z,14.08
2019-05-13T05:10:25.889Z,13.99
2019-05-13T05:13:25.147Z,13.98
2019-05-13T05:16:21.988Z,14.10
2019-05-13T05:19:26.910Z,14.13
2019-05-13T05:22:35.619Z,14.26
2019-05-13T05:25:22.133Z,14.29
2019-05-13T05:28:34.438Z,14.11
2019-05-13T05:31:44.592Z,14.36
2019-05-13T05:34:48.823Z,14.46
2019-05-13T05:37:32.869Z,14.51
2019-05-13T05:40:12.328Z,14.68
2019-05-13T05:42:51.671Z,14.55
2019-05-13T05:45:23.789Z,14.61
2019-05-13T05:47:56.841Z,14.08
2019-05-13T05:50:31.921Z,14.44
2019-05-13T05:53:05.521Z,14.60
2019-05-13T05:55:41.670Z,14.75
2019-05-13T05:58:17.018Z,14.80
2019-05-13T06:00:54.473Z,14.91
2019-05-13T06:03:32.773Z,14.52
2019-05-13T06:06:07.563Z,14.56
2019-05-13T06:08:44.016Z,14.55
2019-05-13T06:11:18.962Z,14.80
2019-05-13T06:13:54.733Z,14.86
2019-05-13T06:16:32.078Z,14.76
2019-05-13T06:19:05.092Z,14.95
2019-05-13T06:21:37.304Z,14.75
2019-05-13T06:24:08.353Z,14.96
2019-05-13T06:26:47.886Z,14.91
2019-05-13T06:29:22.888Z,15.07
2019-05-13T06:31:56.469Z,15.05
2019-05-13T06:34:27.101Z,15.04
2019-05-13T06:37:01.635Z,15.06
2019-05-13T06:39:32.028Z,15.24
2019-05-13T06:42:07.658Z,14.84
2019-05-13T06:45:02.290Z,14.65
2019-05-13T06:47:36.241Z,15.04
2019-05-13T06:50:11.683Z,15.21
2019-05-13T06:52:45.082Z,15.19
2019-05-13T06:55:16.954Z,15.04
2019-05-13T06:57:47.892Z,15.34
2019-05-13T07:00:21.589Z,15.05
2019-05-13T07:02:55.177Z,15.36
2019-05-13T07:05:31.817Z,15.34
2019-05-13T07:08:07.940Z,15.22
2019-05-13T07:10:42.281Z,15.13
2019-05-13T07:13:17.226Z,15.09
2019-05-13T07:15:52.120Z,15.12
2019-05-13T07:18:25.816Z,15.22
2019-05-13T07:20:57.795Z,15.27
2019-05-13T07:23:42.245Z,15.42
2019-05-13T07:26:22.089Z,15.69
2019-05-13T07:28:53.779Z,15.67
2019-05-13T07:31:32.219Z,15.68
2019-05-13T07:34:08.149Z,15.48
2019-05-13T07:36:42.319Z,15.88
2019-05-13T07:39:18.860Z,15.88
2019-05-13T07:41:51.880Z,16.05
2019-05-13T07:44:32.381Z,16.10
2019-05-13T07:47:07.495Z,16.26
2019-05-13T07:49:38.368Z,16.37
2019-05-13T07:52:15.780Z,16.43
2019-05-13T07:55:01.704Z,16.58
2019-05-13T07:57:34.238Z,16.45
2019-05-13T08:00:08.785Z,16.76
2019-05-13T08:02:47.969Z,16.80
2019-05-13T08:05:19.331Z,16.88
2019-05-13T08:07:51.513Z,16.97
2019-05-13T08:10:24.237Z,16.94
2019-05-13T08:12:58.491Z,16.84
2019-05-13T08:15:33.449Z,16.97
2019-05-13T08:18:07.999Z,16.97
2019-05-13T08:20:41.991Z,16.96
2019-05-13T08:23:16.997Z,17.09
2019-05-13T08:25:51.897Z,17.11
2019-05-13T08:28:25.865Z,17.37
2019-05-13T08:30:57.149Z,17.18
2019-05-13T08:33:42.446Z,17.37
2019-05-13T08:36:16.870Z,17.39
2019-05-13T08:39:30.141Z,17.36
2019-05-13T08:42:11.703Z,17.42
2019-05-13T08:44:36.554Z,17.51
2019-05-13T08:47:12.021Z,17.56
2019-05-13T08:49:44.822Z,17.38
2019-05-13T08:52:16.499Z,17.44
2019-05-13T08:54:52.498Z,17.48
2019-05-13T08:57:23.742Z,17.60
2019-05-13T08:59:53.952Z,17.67
2019-05-13T09:02:28.518Z,17.85
2019-05-13T09:05:02.837Z,17.96
2019-05-13T09:07:41.444Z,17.92
2019-05-13T09:10:15.075Z,17.99
2019-05-13T09:13:33.411Z,18.23
2019-05-13T09:16:07.292Z,18.26
2019-05-13T09:18:43.073Z,18.53
2019-05-13T09:26:52.744Z,18.92
2019-05-13T09:29:32.179Z,19.05
2019-05-13T09:32:06.087Z,19.11
2019-05-13T09:34:37.648Z,19.22
2019-05-13T09:37:12.907Z,19.50
2019-05-13T09:39:45.678Z,19.26
2019-05-13T09:42:18.902Z,19.43
2019-05-13T09:45:02.215Z,19.72
2019-05-13T09:47:33.464Z,19.89
2019-05-13T09:50:06.041Z,19.90
2019-05-13T09:52:39.662Z,19.86
2019-05-13T09:55:25.303Z,19.86
2019-05-13T09:57:47.688Z,20.00
2019-05-13T10:00:23.680Z,20.09
2019-05-13T10:02:55.039Z,20.26
2019-05-13T10:05:28.329Z,20.37
2019-05-13T10:08:05.137Z,20.79
2019-05-13T10:10:38.537Z,21.01
2019-05-13T10:16:04.993Z,21.28
2019-05-13T10:18:43.404Z,21.47
2019-05-13T10:21:23.869Z,21.74
2019-05-13T10:24:15.979Z,21.74
2019-05-13T10:26:51.883Z,21.68
2019-05-13T10:29:31.684Z,21.65
2019-05-13T10:32:08.741Z,21.99
2019-05-13T10:34:46.003Z,21.81
2019-05-13T10:37:21.959Z,22.10
2019-05-13T10:40:14.620Z,22.14
2019-05-13T10:42:52.359Z,22.21
2019-05-13T10:45:29.207Z,22.36
2019-05-13T10:48:03.610Z,22.43
2019-05-13T10:50:41.785Z,22.25
2019-05-13T10:53:17.708Z,22.22
2019-05-13T10:55:57.697Z,22.55
2019-05-13T10:58:31.461Z,22.65
2019-05-13T11:01:05.191Z,22.58
2019-05-13T11:03:38.281Z,22.71
2019-05-13T11:06:18.057Z,22.68
2019-05-13T11:08:53.132Z,23.10
2019-05-13T11:11:32.995Z,22.92
2019-05-13T11:14:28.535Z,23.02
2019-05-13T11:17:14.943Z,23.02
2019-05-13T11:19:47.728Z,23.21
2019-05-13T11:22:22.663Z,23.33
2019-05-13T11:24:59.396Z,23.62
2019-05-13T11:27:42.140Z,24.08
2019-05-13T11:30:17.547Z,24.33
2019-05-13T11:32:52.600Z,24.48
2019-05-13T11:35:28.938Z,24.43
2019-05-13T11:38:01.859Z,24.13
2019-05-13T11:40:36.976Z,24.67
2019-05-13T11:43:12.269Z,24.75
2019-05-13T11:45:47.843Z,24.67
2019-05-13T11:48:23.173Z,24.79
2019-05-13T11:50:54.401Z,25.02
2019-05-13T11:53:33.523Z,25.15
2019-05-13T11:56:04.029Z,24.99
2019-05-13T11:58:43.101Z,25.26
2019-05-13T12:01:14.494Z,25.00
2019-05-13T12:03:47.225Z,25.36
2019-05-13T12:06:17.943Z,25.61
2019-05-13T12:08:55.161Z,25.78
2019-05-13T12:11:25.760Z,25.47
2019-05-13T12:14:07.556Z,25.63
2019-05-13T12:16:42.351Z,25.87
2019-05-13T12:19:16.152Z,26.18
2019-05-13T12:21:47.227Z,26.40
2019-05-13T12:24:29.831Z,26.48
2019-05-13T12:27:07.410Z,26.52
2019-05-13T12:29:44.643Z,26.55
2019-05-13T12:32:22.101Z,26.40
2019-05-13T12:34:56.673Z,26.37
2019-05-13T12:37:33.460Z,26.60
2019-05-13T12:40:11.516Z,26.49
2019-05-13T12:42:47.098Z,27.12
2019-05-13T12:45:22.248Z,27.00
2019-05-13T12:47:53.258Z,27.14
2019-05-13T12:50:32.311Z,27.44
2019-05-13T12:53:14.667Z,27.69
2019-05-13T12:55:53.768Z,27.26
2019-05-13T12:58:33.822Z,27.29
2019-05-13T13:01:05.843Z,27.37
2019-05-13T13:03:39.291Z,27.66
2019-05-13T13:06:31.097Z,27.80
2019-05-13T13:08:57.484Z,28.19
2019-05-13T13:11:28.655Z,28.38
2019-05-13T13:14:05.673Z,28.16
2019-05-13T13:16:42.123Z,28.65
2019-05-13T13:19:14.537Z,28.73
2019-05-13T13:24:24.748Z,28.50
2019-05-13T13:27:01.176Z,28.70
2019-05-13T13:29:43.322Z,28.78
2019-05-13T13:32:17.664Z,29.20
2019-05-13T13:34:53.541Z,29.42
2019-05-13T13:37:22.544Z,29.58
2019-05-13T13:39:58.773Z,29.52
2019-05-13T13:42:34.436Z,29.96
2019-05-13T13:45:10.567Z,30.22
2019-05-13T13:47:45.353Z,30.19
2019-05-13T13:50:33.527Z,30.24
2019-05-13T13:53:04.931Z,30.54
2019-05-13T13:55:38.007Z,30.18
2019-05-13T13:58:14.129Z,30.22
2019-05-13T14:01:01.828Z,30.67
2019-05-13T14:03:28.064Z,31.02
2019-05-13T14:06:06.175Z,31.55
2019-05-13T14:06:25.160Z,18.68
2019-05-13T14:06:52.391Z,28.83
2019-05-13T14:08:43.455Z,31.86
2019-05-13T14:11:23.209Z,32.38
2019-05-13T14:13:56.439Z,32.40
2019-05-13T14:16:36.101Z,33.29
2019-05-13T14:19:10.761Z,33.01
2019-05-13T14:21:42.141Z,34.45
2019-05-13T14:24:18.277Z,35.72
2019-05-13T14:26:53.185Z,36.67
2019-05-13T14:29:38.595Z,38.24
2019-05-13T14:32:08.761Z,39.73
2019-05-13T14:34:46.037Z,40.61
2019-05-13T14:37:22.316Z,41.26
2019-05-13T14:39:55.555Z,42.38
2019-05-13T14:42:32.041Z,42.83
2019-05-13T14:45:03.573Z,43.36
2019-05-13T14:47:38.203Z,43.84
2019-05-13T14:50:31.765Z,44.46
2019-05-13T14:53:05.372Z,44.89
2019-05-13T14:55:42.092Z,45.23
2019-05-13T14:58:14.429Z,45.54
2019-05-13T15:01:10.280Z,45.05
2019-05-13T15:03:26.794Z,45.48
2019-05-13T15:05:58.545Z,45.46
2019-05-13T15:08:33.541Z,45.69
2019-05-13T15:11:17.903Z,45.55
2019-05-13T15:13:51.799Z,45.10
2019-05-13T15:16:25.443Z,45.17
2019-05-13T15:19:07.707Z,44.63
2019-05-13T15:21:45.598Z,44.05
2019-05-13T15:24:24.427Z,41.43
2019-05-13T15:27:23.017Z,39.35
2019-05-13T15:30:16.805Z,36.85
2019-05-13T15:32:42.010Z,34.41
2019-05-13T15:35:20.709Z,32.70
2019-05-13T15:37:53.459Z,31.89
2019-05-13T15:40:25.485Z,30.18
2019-05-13T15:42:59.606Z,28.81
2019-05-13T15:45:31.974Z,28.08
2019-05-13T15:48:04.273Z,27.10
2019-05-13T15:50:36.584Z,26.60
2019-05-13T15:53:14.059Z,26.35
2019-05-13T15:55:46.122Z,26.03
2019-05-13T15:58:37.708Z,25.70
2019-05-13T16:01:02.584Z,25.35
2019-05-13T16:03:35.913Z,24.63
2019-05-13T16:06:10.623Z,24.43
2019-05-13T16:08:46.253Z,24.13
2019-05-13T16:11:21.987Z,23.82
2019-05-13T16:13:52.437Z,23.80
2019-05-13T16:16:24.209Z,23.73
2019-05-13T16:18:55.386Z,23.49
2019-05-13T16:21:28.549Z,23.19
2019-05-13T16:24:17.526Z,23.15
2019-05-13T16:26:53.898Z,22.27
2019-05-13T16:29:28.844Z,22.79
2019-05-13T16:32:04.100Z,22.46
2019-05-13T16:34:48.312Z,22.28
2019-05-13T16:37:22.018Z,22.38
2019-05-13T16:39:54.355Z,22.25
2019-05-13T16:42:42.046Z,21.97
2019-05-13T16:45:16.713Z,21.95
2019-05-13T16:47:57.228Z,21.85
2019-05-13T16:50:23.136Z,22.08
2019-05-13T16:53:01.703Z,22.06
2019-05-13T16:55:36.736Z,22.05
2019-05-13T16:58:07.932Z,21.84
2019-05-13T17:00:42.426Z,21.85
2019-05-13T17:03:15.672Z,21.77
2019-05-13T17:05:47.006Z,21.79
2019-05-13T17:08:18.084Z,21.71
2019-05-13T17:10:55.440Z,21.57
2019-05-13T17:13:31.532Z,21.66
2019-05-13T17:16:07.053Z,21.77
2019-05-13T17:18:51.905Z,21.70
2019-05-13T17:21:22.728Z,21.62
2019-05-13T17:23:57.978Z,21.30
2019-05-13T17:26:33.618Z,21.30
2019-05-13T17:29:11.349Z,21.29
2019-05-13T17:32:18.202Z,21.33
2019-05-13T17:34:51.572Z,21.03
2019-05-13T17:37:25.423Z,20.98
2019-05-13T17:40:05.540Z,21.18
2019-05-13T17:42:41.468Z,21.18
2019-05-13T17:45:18.053Z,21.11
2019-05-13T17:47:51.997Z,21.11
2019-05-13T17:50:22.980Z,20.84
2019-05-13T17:52:54.033Z,21.01
2019-05-13T17:55:27.807Z,21.11
2019-05-13T17:58:01.442Z,21.04
2019-05-13T18:00:36.056Z,21.04
2019-05-13T18:03:08.088Z,21.07
2019-05-13T18:05:41.945Z,20.76
2019-05-13T18:08:13.016Z,21.00
2019-05-13T18:10:45.445Z,20.91
2019-05-13T18:13:17.016Z,20.91
2019-05-13T18:15:51.353Z,20.96
2019-05-13T18:18:38.957Z,21.04
2019-05-13T18:21:01.545Z,20.93
2019-05-13T18:23:33.016Z,20.93
2019-05-13T18:26:05.457Z,21.04
2019-05-13T18:28:42.193Z,21.05
2019-05-13T18:31:14.067Z,20.97
2019-05-13T18:33:46.137Z,20.97
2019-05-13T18:36:17.678Z,20.83
2019-05-13T18:38:52.298Z,20.95
2019-05-13T18:41:25.981Z,20.88
2019-05-13T18:44:02.257Z,20.93
2019-05-13T18:46:41.453Z,20.90
2019-05-13T18:49:15.648Z,20.88
2019-05-13T18:51:51.409Z,20.86
2019-05-13T18:54:24.526Z,20.87
2019-05-13T18:56:57.396Z,20.83
2019-05-13T18:59:43.796Z,20.65
2019-05-13T19:02:21.415Z,20.83
2019-05-13T19:05:01.495Z,20.74
2019-05-13T19:07:35.620Z,20.68
2019-05-13T19:10:11.527Z,20.64
2019-05-13T19:12:46.186Z,20.66
2019-05-13T19:15:24.030Z,20.64
2019-05-13T19:17:59.116Z,20.58
2019-05-13T19:20:33.796Z,20.57
2019-05-13T19:23:08.433Z,20.50
2019-05-13T19:25:43.647Z,20.45
2019-05-13T19:28:19.501Z,20.48
2019-05-13T19:30:53.383Z,20.43
2019-05-13T19:33:24.000Z,20.32
2019-05-13T19:35:55.596Z,20.41
2019-05-13T19:38:31.692Z,20.34
2019-05-13T19:41:04.033Z,20.35
2019-05-13T19:43:36.943Z,20.33
2019-05-13T19:46:12.008Z,20.29
2019-05-13T19:48:46.197Z,20.22
2019-05-13T19:51:34.671Z,20.22
2019-05-13T19:54:12.722Z,20.14
2019-05-13T19:56:48.498Z,20.10
2019-05-13T19:59:21.634Z,20.14
2019-05-13T20:01:54.682Z,20.08
2019-05-13T20:04:35.007Z,19.92
2019-05-13T20:07:05.673Z,19.97
2019-05-13T20:09:37.546Z,19.88
2019-05-13T20:12:15.751Z,19.86
2019-05-13T20:14:51.771Z,19.84
2019-05-13T20:17:36.332Z,19.87
2019-05-13T20:20:08.071Z,19.72
2019-05-13T20:22:45.511Z,19.79
2019-05-13T20:25:38.600Z,19.69
2019-05-13T20:28:35.844Z,19.70
2019-05-13T20:31:11.263Z,19.75
2019-05-13T20:33:46.247Z,19.68
2019-05-13T20:36:19.084Z,19.66
2019-05-13T20:38:52.458Z,19.64
2019-05-13T20:41:25.267Z,19.62
2019-05-13T20:44:09.709Z,19.55
2019-05-13T20:46:43.096Z,19.54
2019-05-13T20:49:21.921Z,19.49
2019-05-13T20:51:55.399Z,19.46
2019-05-13T20:54:31.429Z,19.37
2019-05-13T20:57:08.680Z,19.39
2019-05-13T20:59:41.626Z,19.29
2019-05-13T21:02:22.116Z,19.29
2019-05-13T21:05:01.313Z,19.25
2019-05-13T21:07:38.645Z,19.18
2019-05-13T21:10:31.387Z,19.11
2019-05-13T21:13:05.109Z,19.13
2019-05-13T21:18:45.918Z,19.07
2019-05-13T21:21:22.182Z,19.04
2019-05-13T21:24:01.533Z,19.02
2019-05-13T21:26:38.254Z,18.98
2019-05-13T21:29:21.654Z,18.92
2019-05-13T21:31:58.631Z,18.91
2019-05-13T21:34:32.263Z,18.89
2019-05-13T21:37:11.359Z,18.77
2019-05-13T21:39:44.439Z,18.83
2019-05-13T21:42:36.426Z,18.77
2019-05-13T21:45:23.426Z,18.75
2019-05-13T21:47:55.460Z,18.71
2019-05-13T21:50:37.120Z,18.72
2019-05-13T21:53:07.620Z,18.74
2019-05-13T21:55:41.735Z,18.65
2019-05-13T21:58:22.403Z,18.51
2019-05-13T22:01:04.465Z,18.55
2019-05-13T22:03:42.025Z,18.48
2019-05-13T22:06:13.793Z,18.55
2019-05-13T22:08:46.721Z,18.51
2019-05-13T22:11:18.968Z,18.44
2019-05-13T22:13:51.597Z,18.30
2019-05-13T22:16:25.409Z,18.27
2019-05-13T22:18:56.383Z,18.30
2019-05-13T22:21:27.702Z,18.21
2019-05-13T22:24:05.021Z,18.19
2019-05-13T22:26:38.466Z,18.25
2019-05-13T22:29:12.306Z,18.17
2019-05-13T22:31:47.555Z,18.10
2019-05-13T22:34:22.837Z,18.02
2019-05-13T22:37:02.392Z,18.06
2019-05-13T22:39:37.847Z,18.17
2019-05-13T22:42:14.378Z,18.10
2019-05-13T22:44:52.265Z,18.07
2019-05-13T22:47:23.909Z,18.08
2019-05-13T22:49:57.093Z,18.00
2019-05-13T22:52:33.775Z,18.02
2019-05-13T22:55:07.224Z,17.91
2019-05-13T22:57:38.665Z,17.87
2019-05-13T23:00:12.204Z,17.87
2019-05-13T23:02:45.700Z,17.81
2019-05-13T23:05:21.616Z,17.69
2019-05-13T23:07:54.884Z,17.75
2019-05-13T23:10:28.590Z,17.64
2019-05-13T23:13:02.918Z,17.54
2019-05-13T23:15:35.842Z,17.50
2019-05-13T23:18:11.590Z,17.34
2019-05-13T23:20:42.410Z,17.23
2019-05-13T23:23:16.382Z,17.37
2019-05-13T23:25:56.659Z,17.35
2019-05-13T23:28:49.253Z,17.27
2019-05-13T23:31:22.986Z,17.39
2019-05-13T23:33:58.504Z,17.21
2019-05-13T23:36:42.352Z,17.26
2019-05-13T23:39:42.230Z,17.31
2019-05-13T23:42:24.473Z,17.31
2019-05-13T23:45:01.135Z,17.24
2019-05-13T23:47:35.160Z,17.12
2019-05-13T23:50:07.336Z,17.03
2019-05-13T23:52:41.691Z,17.01
2019-05-13T23:55:14.131Z,16.94
2019-05-13T23:57:47.642Z,16.78
